createdAt,value
2022-11-25T00:00:50.200Z,7.80
2022-11-25T00:03:23.115Z,7.90
2022-11-25T00:06:04.889Z,7.90
2022-11-25T00:08:38.220Z,7.90
2022-11-25T00:11:11.507Z,7.90
2022-11-25T00:13:45.871Z,7.80
2022-11-25T00:16:22.462Z,7.70
2022-11-25T00:19:02.781Z,7.50
2022-11-25T00:21:39.327Z,7.50
2022-11-25T00:24:11.092Z,7.50
2022-11-25T00:26:41.262Z,7.50
2022-11-25T00:29:15.747Z,7.60
2022-11-25T00:31:46.351Z,7.70
2022-11-25T00:34:21.468Z,7.60
2022-11-25T00:36:54.076Z,7.70
2022-11-25T00:39:24.641Z,7.60
2022-11-25T00:42:08.529Z,7.60
2022-11-25T00:44:41.659Z,7.60
2022-11-25T00:47:18.459Z,7.60
2022-11-25T00:49:55.027Z,7.70
2022-11-25T00:52:27.588Z,7.70
2022-11-25T00:55:01.359Z,7.60
2022-11-25T00:57:32.562Z,7.60
2022-11-25T01:00:02.773Z,7.50
2022-11-25T01:02:45.744Z,7.50
2022-11-25T01:05:19.261Z,7.50
2022-11-25T01:07:49.617Z,7.50
2022-11-25T01:10:21.122Z,7.50
2022-11-25T01:12:51.483Z,7.50
2022-11-25T01:15:21.510Z,7.40
2022-11-25T01:17:51.593Z,7.40
2022-11-25T01:20:27.532Z,7.40
2022-11-25T01:22:57.827Z,7.40
2022-11-25T01:25:27.931Z,7.50
2022-11-25T01:27:58.003Z,7.50
2022-11-25T01:30:28.096Z,7.60
2022-11-25T01:32:59.334Z,7.60
2022-11-25T01:35:33.045Z,7.60
2022-11-25T01:38:06.131Z,7.70
2022-11-25T01:40:36.328Z,7.70
2022-11-25T01:43:16.118Z,7.70
2022-11-25T01:45:46.492Z,7.70
2022-11-25T01:48:25.080Z,7.70
2022-11-25T01:51:00.598Z,7.80
2022-11-25T01:53:31.536Z,7.90
2022-11-25T01:56:18.840Z,8.00
2022-11-25T01:58:53.214Z,8.10
2022-11-25T02:01:27.171Z,8.10
2022-11-25T02:04:07.362Z,8.30
2022-11-25T02:06:49.137Z,8.40
2022-11-25T02:09:21.723Z,8.40
2022-11-25T02:11:54.530Z,8.40
2022-11-25T02:14:29.076Z,8.40
2022-11-25T02:16:59.975Z,8.50
2022-11-25T02:19:47.834Z,8.50
2022-11-25T02:22:34.210Z,8.40
2022-11-25T02:25:17.542Z,8.40
2022-11-25T02:27:54.473Z,8.40
2022-11-25T02:30:25.398Z,8.50
2022-11-25T02:32:56.990Z,8.50
2022-11-25T02:35:37.987Z,8.50
2022-11-25T02:38:13.083Z,8.40
2022-11-25T02:40:55.339Z,8.30
2022-11-25T02:43:33.228Z,8.30
2022-11-25T02:46:10.839Z,8.30
2022-11-25T02:49:07.813Z,8.20
2022-11-25T02:51:38.283Z,8.10
2022-11-25T02:54:09.332Z,8.10
2022-11-25T02:56:49.981Z,8.10
2022-11-25T02:59:21.363Z,8.00
2022-11-25T03:01:52.363Z,8.00
2022-11-25T03:04:25.195Z,8.00
2022-11-25T03:06:57.559Z,7.90
2022-11-25T03:09:30.087Z,7.90
2022-11-25T03:12:18.161Z,8.00
2022-11-25T03:14:49.089Z,7.90
2022-11-25T03:17:19.242Z,8.00
2022-11-25T03:19:51.438Z,8.10
2022-11-25T03:22:24.173Z,8.10
2022-11-25T03:24:54.380Z,8.20
2022-11-25T03:27:30.619Z,8.20
2022-11-25T03:30:01.097Z,8.20
2022-11-25T03:32:31.607Z,8.20
2022-11-25T03:35:04.792Z,8.20
2022-11-25T03:37:35.796Z,8.10
2022-11-25T03:40:06.748Z,8.20
2022-11-25T03:42:45.070Z,8.20
2022-11-25T03:45:20.447Z,8.10
2022-11-25T03:47:51.371Z,8.10
2022-11-25T03:50:22.653Z,8.10
2022-11-25T03:52:53.684Z,8.10
2022-11-25T03:55:23.963Z,8.20
2022-11-25T03:58:02.391Z,8.20
2022-11-25T04:00:33.853Z,8.20
2022-11-25T04:03:06.756Z,8.30
2022-11-25T04:05:36.855Z,8.30
2022-11-25T04:08:07.353Z,8.40
2022-11-25T04:10:40.762Z,8.40
2022-11-25T04:13:11.757Z,8.40
2022-11-25T04:15:48.582Z,8.50
2022-11-25T04:18:20.824Z,8.50
2022-11-25T04:20:59.380Z,8.40
2022-11-25T04:23:37.403Z,8.50
2022-11-25T04:26:07.940Z,8.60
2022-11-25T04:28:40.731Z,8.60
2022-11-25T04:31:12.162Z,8.60
2022-11-25T04:33:42.619Z,8.60
2022-11-25T04:36:13.140Z,8.60
2022-11-25T04:38:43.899Z,8.60
2022-11-25T04:41:17.167Z,8.60
2022-11-25T04:43:50.149Z,8.60
2022-11-25T04:46:24.630Z,8.60
2022-11-25T04:48:55.014Z,8.60
2022-11-25T04:51:25.632Z,8.50
2022-11-25T04:53:55.979Z,8.50
2022-11-25T04:56:26.722Z,8.50
2022-11-25T04:59:14.296Z,8.50
2022-11-25T05:01:44.491Z,8.50
2022-11-25T05:04:14.674Z,8.50
2022-11-25T05:06:44.868Z,8.50
2022-11-25T05:09:18.001Z,8.60
2022-11-25T05:11:52.616Z,8.50
2022-11-25T05:14:25.867Z,8.50
2022-11-25T05:16:56.382Z,8.50
2022-11-25T05:19:27.619Z,8.50
2022-11-25T05:21:58.596Z,8.50
2022-11-25T05:24:37.913Z,8.40
2022-11-25T05:27:14.952Z,8.40
2022-11-25T05:29:56.411Z,8.40
2022-11-25T05:32:27.068Z,8.40
2022-11-25T05:34:57.205Z,8.40
2022-11-25T05:37:27.562Z,8.40
2022-11-25T05:40:00.103Z,8.40
2022-11-25T05:42:33.156Z,8.50
2022-11-25T05:45:07.754Z,8.50
2022-11-25T05:47:41.757Z,8.40
2022-11-25T05:50:12.117Z,8.40
2022-11-25T05:52:44.823Z,8.40
2022-11-25T05:55:15.565Z,8.40
2022-11-25T05:57:45.936Z,8.40
2022-11-25T06:00:26.516Z,8.40
2022-11-25T06:02:57.569Z,8.40
2022-11-25T06:05:28.430Z,8.40
2022-11-25T06:07:58.634Z,8.40
2022-11-25T06:10:31.007Z,8.40
2022-11-25T06:13:01.423Z,8.40
2022-11-25T06:15:36.526Z,8.40
2022-11-25T06:18:07.104Z,8.40
2022-11-25T06:20:38.079Z,8.40
2022-11-25T06:23:08.460Z,8.40
2022-11-25T06:25:42.954Z,8.50
2022-11-25T06:28:13.620Z,8.50
2022-11-25T06:30:48.724Z,8.50
2022-11-25T06:33:23.577Z,8.60
2022-11-25T06:36:01.133Z,8.60
2022-11-25T06:38:33.784Z,8.70
2022-11-25T06:41:10.115Z,8.60
2022-11-25T06:43:40.259Z,8.60
2022-11-25T06:46:29.793Z,8.60
2022-11-25T06:49:05.284Z,8.60
2022-11-25T06:51:44.884Z,8.70
2022-11-25T06:54:15.519Z,8.80
2022-11-25T06:56:51.585Z,8.90
2022-11-25T06:59:22.532Z,8.80
2022-11-25T07:01:55.282Z,8.80
2022-11-25T07:04:25.594Z,8.80
2022-11-25T07:06:55.746Z,8.80
2022-11-25T07:09:29.107Z,8.90
2022-11-25T07:12:02.324Z,8.90
2022-11-25T07:14:37.539Z,8.90
2022-11-25T07:17:15.165Z,8.80
2022-11-25T07:19:45.681Z,8.80
2022-11-25T07:22:15.948Z,8.70
2022-11-25T07:24:46.014Z,8.70
2022-11-25T07:27:16.594Z,8.60
2022-11-25T07:30:10.776Z,8.60
2022-11-25T07:32:46.120Z,8.40
2022-11-25T07:35:16.664Z,8.40
2022-11-25T07:37:50.369Z,8.30
2022-11-25T07:40:32.701Z,8.20
2022-11-25T07:43:05.641Z,8.20
2022-11-25T07:45:47.329Z,8.10
2022-11-25T07:48:20.264Z,8.10
2022-11-25T07:50:50.371Z,8.20
2022-11-25T07:53:27.929Z,8.40
2022-11-25T07:56:00.555Z,8.60
2022-11-25T07:58:31.368Z,8.80
2022-11-25T08:01:05.400Z,9.00
2022-11-25T08:03:40.504Z,9.20
2022-11-25T08:06:16.727Z,9.40
2022-11-25T08:08:52.857Z,9.40
2022-11-25T08:11:26.264Z,9.40
2022-11-25T08:13:57.458Z,9.30
2022-11-25T08:16:32.427Z,9.30
2022-11-25T08:19:18.782Z,9.10
2022-11-25T08:21:51.721Z,9.00
2022-11-25T08:24:23.998Z,8.90
2022-11-25T08:26:58.730Z,8.90
2022-11-25T08:29:28.915Z,9.00
2022-11-25T08:32:02.926Z,9.20
2022-11-25T08:34:41.194Z,9.50
2022-11-25T08:37:11.402Z,9.80
2022-11-25T08:39:52.394Z,10.40
2022-11-25T08:42:23.530Z,11.60
2022-11-25T08:44:57.764Z,12.80
2022-11-25T08:47:28.292Z,13.60
2022-11-25T08:50:01.427Z,14.10
2022-11-25T08:52:31.564Z,15.50
2022-11-25T08:55:02.020Z,16.40
2022-11-25T08:57:32.380Z,16.90
2022-11-25T09:00:11.272Z,16.90
2022-11-25T09:02:41.849Z,16.90
2022-11-25T09:05:17.000Z,17.00
2022-11-25T09:07:47.492Z,17.60
2022-11-25T09:10:21.944Z,17.80
2022-11-25T09:12:52.118Z,18.60
2022-11-25T09:15:22.771Z,18.40
2022-11-25T09:18:13.389Z,17.90
2022-11-25T09:20:48.227Z,18.40
2022-11-25T09:23:19.308Z,18.30
2022-11-25T09:25:55.900Z,18.10
2022-11-25T09:28:30.321Z,17.70
2022-11-25T09:31:00.450Z,17.60
2022-11-25T09:33:30.975Z,17.70
2022-11-25T09:36:09.320Z,18.10
2022-11-25T09:38:43.129Z,18.10
2022-11-25T09:41:43.950Z,18.50
2022-11-25T09:44:47.993Z,18.70
2022-11-25T09:47:36.044Z,18.60
2022-11-25T09:50:28.798Z,18.50
2022-11-25T09:53:19.039Z,18.20
2022-11-25T09:56:04.091Z,18.00
2022-11-25T09:58:40.239Z,18.70
2022-11-25T10:01:23.860Z,19.20
2022-11-25T10:04:03.368Z,18.50
2022-11-25T10:06:43.636Z,17.50
2022-11-25T10:09:22.712Z,17.90
2022-11-25T10:11:58.254Z,18.20
2022-11-25T10:14:35.861Z,18.50
2022-11-25T10:17:20.700Z,18.10
2022-11-25T10:20:03.183Z,17.80
2022-11-25T10:22:43.071Z,17.90
2022-11-25T10:25:23.482Z,18.10
2022-11-25T10:28:00.203Z,18.20
2022-11-25T10:30:46.927Z,17.90
2022-11-25T10:33:23.618Z,18.30
2022-11-25T10:36:00.042Z,18.00
2022-11-25T10:38:40.302Z,18.10
2022-11-25T10:41:18.598Z,18.30
2022-11-25T10:43:52.945Z,18.10
2022-11-25T10:47:12.221Z,18.00
2022-11-25T10:49:45.910Z,17.60
2022-11-25T10:52:26.382Z,17.40
2022-11-25T10:55:16.911Z,17.20
2022-11-25T10:57:58.790Z,16.10
2022-11-25T11:03:31.766Z,15.50
2022-11-25T11:06:02.411Z,15.40
2022-11-25T11:08:44.463Z,15.40
2022-11-25T11:11:22.008Z,15.70
2022-11-25T11:14:16.395Z,16.50
2022-11-25T11:16:57.480Z,16.40
2022-11-25T11:19:31.895Z,16.70
2022-11-25T11:22:20.452Z,16.90
2022-11-25T11:24:50.619Z,16.90
2022-11-25T11:27:26.191Z,16.50
2022-11-25T11:30:20.448Z,16.30
2022-11-25T11:33:02.441Z,15.80
2022-11-25T11:36:01.110Z,15.30
2022-11-25T11:38:40.333Z,15.20
2022-11-25T11:41:33.067Z,15.20
2022-11-25T11:44:21.038Z,15.40
2022-11-25T11:47:23.099Z,15.40
2022-11-25T11:50:29.814Z,15.30
2022-11-25T11:53:12.725Z,15.10
2022-11-25T11:56:33.038Z,14.80
2022-11-25T11:59:15.243Z,14.60
2022-11-25T12:02:19.795Z,14.40
2022-11-25T12:05:06.413Z,14.20
2022-11-25T12:07:47.541Z,14.00
2022-11-25T12:10:32.885Z,13.90
2022-11-25T12:13:18.733Z,13.60
2022-11-25T12:15:57.689Z,13.40
2022-11-25T12:18:50.303Z,13.20
2022-11-25T12:21:45.684Z,13.20
2022-11-25T12:24:27.278Z,13.10
2022-11-25T12:27:14.873Z,13.10
2022-11-25T12:29:54.857Z,13.00
2022-11-25T12:32:53.935Z,12.90
2022-11-25T12:35:47.663Z,12.70
2022-11-25T12:38:36.676Z,12.60
2022-11-25T12:41:20.239Z,12.60
2022-11-25T12:43:57.864Z,12.90
2022-11-25T12:46:44.769Z,13.10
2022-11-25T12:49:23.581Z,13.10
2022-11-25T12:52:33.529Z,13.30
2022-11-25T12:55:18.822Z,13.50
2022-11-25T12:58:36.615Z,13.50
2022-11-25T13:01:44.350Z,13.40
2022-11-25T13:05:18.467Z,13.30
2022-11-25T13:08:15.792Z,13.00
2022-11-25T13:11:21.537Z,12.80
2022-11-25T13:14:02.812Z,12.70
2022-11-25T13:16:37.295Z,12.70
2022-11-25T13:19:13.732Z,12.60
2022-11-25T13:22:04.328Z,12.30
2022-11-25T13:24:42.463Z,12.10
2022-11-25T13:27:36.039Z,12.00
2022-11-25T13:30:07.335Z,12.00
2022-11-25T13:32:45.153Z,11.90
2022-11-25T13:35:54.279Z,11.80
2022-11-25T13:39:01.508Z,11.80
2022-11-25T13:42:07.483Z,11.80
2022-11-25T13:44:53.317Z,11.80
2022-11-25T13:47:35.965Z,11.90
2022-11-25T13:50:12.068Z,12.10
2022-11-25T13:52:53.404Z,12.20
2022-11-25T13:55:38.136Z,12.30
2022-11-25T13:58:38.968Z,12.30
2022-11-25T14:01:30.252Z,12.30
2022-11-25T14:04:10.856Z,12.30
2022-11-25T14:07:21.066Z,12.30
2022-11-25T14:10:24.591Z,12.30
2022-11-25T14:13:34.136Z,12.10
2022-11-25T14:16:30.271Z,11.90
2022-11-25T14:19:51.897Z,11.70
2022-11-25T14:23:00.905Z,11.60
2022-11-25T14:25:37.235Z,11.40
2022-11-25T14:28:24.906Z,11.30
2022-11-25T14:31:02.127Z,11.20
2022-11-25T14:33:44.750Z,11.20
2022-11-25T14:36:25.967Z,11.20
2022-11-25T14:39:02.545Z,11.10
2022-11-25T14:41:44.360Z,11.10
2022-11-25T14:44:26.091Z,11.00
2022-11-25T14:47:00.855Z,10.90
2022-11-25T14:50:05.345Z,10.90
2022-11-25T14:52:40.599Z,10.80
2022-11-25T14:55:12.975Z,10.80
2022-11-25T14:57:47.780Z,10.90
2022-11-25T15:00:21.852Z,10.90
2022-11-25T15:03:01.163Z,10.90
2022-11-25T15:05:37.031Z,10.80
2022-11-25T15:08:17.932Z,10.80
2022-11-25T15:10:56.100Z,10.70
2022-11-25T15:13:38.491Z,10.60
2022-11-25T15:16:19.060Z,10.50
2022-11-25T15:18:54.534Z,10.40
2022-11-25T15:21:40.814Z,10.30
2022-11-25T15:24:28.417Z,10.20
2022-11-25T15:27:01.646Z,10.30
2022-11-25T15:29:34.458Z,10.30
2022-11-25T15:32:19.369Z,10.30
2022-11-25T15:34:55.267Z,10.20
2022-11-25T15:37:25.904Z,10.10
2022-11-25T15:40:36.632Z,10.00
2022-11-25T15:43:23.072Z,9.90
2022-11-25T15:46:05.198Z,9.80
2022-11-25T15:48:47.280Z,9.70
2022-11-25T15:51:35.628Z,9.70
2022-11-25T15:54:18.049Z,9.80
2022-11-25T15:56:55.628Z,9.70
2022-11-25T15:59:52.280Z,9.80
2022-11-25T16:02:42.531Z,9.80
2022-11-25T16:05:34.481Z,9.80
2022-11-25T16:08:42.979Z,9.80
2022-11-25T16:11:19.608Z,9.90
2022-11-25T16:13:51.413Z,9.90
2022-11-25T16:16:29.198Z,9.90
2022-11-25T16:19:22.106Z,9.90
2022-11-25T16:22:04.172Z,9.90
2022-11-25T16:24:55.952Z,9.90
2022-11-25T16:27:33.873Z,9.90
2022-11-25T16:30:22.106Z,9.90
2022-11-25T16:32:52.298Z,9.90
2022-11-25T16:35:26.141Z,10.20
2022-11-25T16:38:01.450Z,10.30
2022-11-25T16:40:31.893Z,10.20
2022-11-25T16:43:03.366Z,10.10
2022-11-25T16:45:33.651Z,10.00
2022-11-25T16:48:19.844Z,10.00
2022-11-25T16:50:50.668Z,9.90
2022-11-25T16:53:23.391Z,9.90
2022-11-25T16:55:59.469Z,9.90
2022-11-25T16:58:29.769Z,9.90
2022-11-25T17:01:06.524Z,9.80
2022-11-25T17:03:43.153Z,9.90
2022-11-25T17:06:22.563Z,9.90
2022-11-25T17:08:56.070Z,9.90
2022-11-25T17:11:32.452Z,10.00
2022-11-25T17:14:06.936Z,10.10
2022-11-25T17:16:39.672Z,10.10
2022-11-25T17:19:18.421Z,10.00
2022-11-25T17:21:48.783Z,9.80
2022-11-25T17:24:25.259Z,9.70
2022-11-25T17:27:02.273Z,9.60
2022-11-25T17:29:38.376Z,9.60
2022-11-25T17:32:14.993Z,9.50
2022-11-25T17:34:45.205Z,9.50
2022-11-25T17:37:18.555Z,9.50
2022-11-25T17:39:52.755Z,9.50
2022-11-25T17:42:30.446Z,9.50
2022-11-25T17:45:04.231Z,9.50
2022-11-25T17:47:38.857Z,9.50
2022-11-25T17:50:22.007Z,9.50
2022-11-25T17:52:54.908Z,9.40
2022-11-25T17:55:27.708Z,9.40
2022-11-25T17:58:08.590Z,9.40
2022-11-25T18:00:48.519Z,9.40
2022-11-25T18:03:19.970Z,9.30
2022-11-25T18:05:50.084Z,9.30
2022-11-25T18:08:20.252Z,9.20
2022-11-25T18:11:30.964Z,9.20
2022-11-25T18:14:01.295Z,9.20
2022-11-25T18:16:33.374Z,9.30
2022-11-25T18:19:24.075Z,9.30
2022-11-25T18:21:54.356Z,9.30
2022-11-25T18:24:24.720Z,9.30
2022-11-25T18:26:59.824Z,9.30
2022-11-25T18:29:30.561Z,9.30
2022-11-25T18:32:07.177Z,9.30
2022-11-25T18:34:37.509Z,9.30
2022-11-25T18:37:07.983Z,9.30
2022-11-25T18:39:38.122Z,9.40
2022-11-25T18:42:31.872Z,9.40
2022-11-25T18:45:02.176Z,9.40
2022-11-25T18:47:39.692Z,9.40
2022-11-25T18:50:18.509Z,9.40
2022-11-25T18:52:48.751Z,9.50
2022-11-25T18:55:23.823Z,9.50
2022-11-25T18:57:59.645Z,9.50
2022-11-25T19:00:33.910Z,9.50
2022-11-25T19:03:04.264Z,9.40
2022-11-25T19:05:38.623Z,9.30
2022-11-25T19:08:11.732Z,9.20
2022-11-25T19:10:44.439Z,9.30
2022-11-25T19:13:27.199Z,9.40
2022-11-25T19:16:00.870Z,9.50
2022-11-25T19:18:31.458Z,9.50
2022-11-25T19:21:05.185Z,9.40
2022-11-25T19:23:36.168Z,9.30
2022-11-25T19:26:16.083Z,9.20
2022-11-25T19:28:59.657Z,9.10
2022-11-25T19:31:34.921Z,9.00
2022-11-25T19:34:08.536Z,8.90
2022-11-25T19:36:38.702Z,8.80
2022-11-25T19:39:19.496Z,8.70
2022-11-25T19:41:52.708Z,8.60
2022-11-25T19:44:25.372Z,8.50
2022-11-25T19:49:46.817Z,8.40
2022-11-25T19:52:23.841Z,8.30
2022-11-25T19:54:53.956Z,8.20
2022-11-25T19:57:27.590Z,8.20
2022-11-25T20:00:00.345Z,8.20
2022-11-25T20:02:31.820Z,8.20
2022-11-25T20:05:06.766Z,8.10
2022-11-25T20:07:37.991Z,8.10
2022-11-25T20:10:24.248Z,8.10
2022-11-25T20:12:57.556Z,8.00
2022-11-25T20:15:30.727Z,7.90
2022-11-25T20:18:04.648Z,7.90
2022-11-25T20:20:44.532Z,7.80
2022-11-25T20:23:21.422Z,7.80
2022-11-25T20:25:53.055Z,7.70
2022-11-25T20:28:26.623Z,7.60
2022-11-25T20:31:02.644Z,7.60
2022-11-25T20:36:19.878Z,7.60
2022-11-25T20:38:54.554Z,7.50
2022-11-25T20:41:28.046Z,7.40
2022-11-25T20:43:59.604Z,7.30
2022-11-25T20:46:37.481Z,7.30
2022-11-25T20:49:25.731Z,7.30
2022-11-25T20:51:56.179Z,7.20
2022-11-25T20:54:26.717Z,7.40
2022-11-25T20:56:57.490Z,7.40
2022-11-25T20:59:28.675Z,7.30
2022-11-25T21:02:09.487Z,7.20
2022-11-25T21:04:39.925Z,7.10
2022-11-25T21:07:18.000Z,7.20
2022-11-25T21:09:48.234Z,7.30
2022-11-25T21:12:19.771Z,7.30
2022-11-25T21:14:50.313Z,7.10
2022-11-25T21:17:25.793Z,7.00
2022-11-25T21:19:55.867Z,6.90
2022-11-25T21:22:26.268Z,6.80
2022-11-25T21:24:56.378Z,6.80
2022-11-25T21:27:28.031Z,6.80
2022-11-25T21:29:58.128Z,6.80
2022-11-25T21:32:31.315Z,6.80
2022-11-25T21:35:05.680Z,6.70
2022-11-25T21:37:40.718Z,6.70
2022-11-25T21:40:27.535Z,6.70
2022-11-25T21:42:57.819Z,6.70
2022-11-25T21:45:28.980Z,6.60
2022-11-25T21:48:01.750Z,6.60
2022-11-25T21:50:32.624Z,6.60
2022-11-25T21:53:02.925Z,6.60
2022-11-25T21:55:33.915Z,6.50
2022-11-25T21:58:08.488Z,6.50
2022-11-25T22:00:39.363Z,6.50
2022-11-25T22:03:17.979Z,6.50
2022-11-25T22:05:48.415Z,6.50
2022-11-25T22:08:19.483Z,6.40
2022-11-25T22:10:54.979Z,6.40
2022-11-25T22:13:32.292Z,6.40
2022-11-25T22:16:03.139Z,6.40
2022-11-25T22:18:39.537Z,6.30
2022-11-25T22:21:09.815Z,6.40
2022-11-25T22:23:40.243Z,6.50
2022-11-25T22:26:22.632Z,6.40
2022-11-25T22:28:57.551Z,6.40
2022-11-25T22:31:29.746Z,6.40
2022-11-25T22:34:03.117Z,6.40
2022-11-25T22:36:37.619Z,6.30
2022-11-25T22:39:18.397Z,6.20
2022-11-25T22:41:52.739Z,6.20
2022-11-25T22:44:37.806Z,6.10
2022-11-25T22:47:20.574Z,6.00
2022-11-25T22:49:55.295Z,5.90
2022-11-25T22:52:30.270Z,5.90
2022-11-25T22:55:13.852Z,5.80
2022-11-25T22:57:44.543Z,5.70
2022-11-25T23:00:23.256Z,5.70
2022-11-25T23:02:57.693Z,5.60
2022-11-25T23:05:38.457Z,5.60
2022-11-25T23:08:16.664Z,5.50
2022-11-25T23:10:47.462Z,5.50
2022-11-25T23:13:18.861Z,5.50
2022-11-25T23:15:59.509Z,5.50
2022-11-25T23:18:39.117Z,5.50
2022-11-25T23:21:34.549Z,5.50
2022-11-25T23:24:07.565Z,5.60
2022-11-25T23:26:40.330Z,5.50
2022-11-25T23:29:10.857Z,5.50
2022-11-25T23:31:42.823Z,5.50
2022-11-25T23:34:16.177Z,5.50
2022-11-25T23:36:52.415Z,5.50
2022-11-25T23:39:25.385Z,5.50
2022-11-25T23:41:57.133Z,5.50
2022-11-25T23:44:30.851Z,5.50
2022-11-25T23:47:07.303Z,5.50
2022-11-25T23:49:44.189Z,5.50
2022-11-25T23:52:28.923Z,5.40
2022-11-25T23:55:01.383Z,5.40
2022-11-25T23:57:36.697Z,5.30
